Time;durP1;ratioP1;P1;durP2;ratioP2;P2;SDS_P1;SDS_P2;PMS_P1;PMS_P2;Temp;Humidity;BMP_temperature;BMP_pressure;BME280_temperature;BME280_humidity;BME280_pressure;Samples;Min_cycle;Max_cycle;Signal;HPM_P1;HPM_P2
2023/09/16 00:00:08;;;;;;;3.78;2.83;;;23.80;58.00;;;;;;4926479;28;93656;-85
2023/09/16 00:02:34;;;;;;;3.28;2.78;;;23.80;58.00;;;;;;4908858;28;93242;-86
2023/09/16 00:05:00;;;;;;;2.40;2.15;;;23.70;57.90;;;;;;4915995;28;99221;-85
2023/09/16 00:07:26;;;;;;;2.40;2.20;;;23.70;58.00;;;;;;4934335;28;94361;-86
2023/09/16 00:09:56;;;;;;;2.40;2.20;;;23.70;58.00;;;;;;4931099;28;91956;-85
2023/09/16 00:12:23;;;;;;;2.55;2.35;;;23.70;57.90;;;;;;4912058;28;93203;-85
2023/09/16 00:14:48;;;;;;;2.75;2.30;;;23.70;58.00;;;;;;4911528;28;94952;-86
2023/09/16 00:17:14;;;;;;;2.63;2.30;;;23.70;58.10;;;;;;4931226;28;92832;-85
2023/09/16 00:19:39;;;;;;;3.03;2.22;;;23.70;58.10;;;;;;4934854;28;92921;-85
2023/09/16 00:22:10;;;;;;;2.60;2.28;;;23.70;58.00;;;;;;4933352;28;92871;-85
2023/09/16 00:24:36;;;;;;;2.58;2.20;;;23.70;58.10;;;;;;4915409;28;97114;-85
2023/09/16 00:27:01;;;;;;;2.13;1.92;;;23.70;58.10;;;;;;4927844;28;95973;-86
2023/09/16 00:29:27;;;;;;;3.28;2.25;;;23.70;58.20;;;;;;4933372;28;92818;-85
2023/09/16 00:31:52;;;;;;;2.58;2.33;;;23.70;58.20;;;;;;4933262;28;92511;-85
2023/09/16 00:34:18;;;;;;;3.60;2.38;;;23.70;58.20;;;;;;4915172;28;97277;-85
2023/09/16 00:36:44;;;;;;;2.70;2.35;;;23.70;58.20;;;;;;4931186;28;93053;-85
2023/09/16 00:39:09;;;;;;;4.30;2.70;;;23.60;58.20;;;;;;4926530;28;93340;-85
2023/09/16 00:41:35;;;;;;;2.83;2.40;;;23.70;58.30;;;;;;4912316;28;92021;-85
2023/09/16 00:44:01;;;;;;;3.20;2.45;;;23.60;58.10;;;;;;4930875;28;93626;-85
2023/09/16 00:46:26;;;;;;;2.95;2.30;;;23.60;58.20;;;;;;4926027;28;93084;-85
2023/09/16 00:48:52;;;;;;;2.95;2.22;;;23.60;58.20;;;;;;4931235;28;94233;-86
2023/09/16 00:51:19;;;;;;;2.10;1.90;;;23.60;58.20;;;;;;4927912;28;92981;-85
2023/09/16 00:53:45;;;;;;;2.65;2.40;;;23.60;58.10;;;;;;4926382;28;93962;-88
2023/09/16 00:56:12;;;;;;;2.92;2.33;;;23.60;58.20;;;;;;4927210;28;92904;-88
2023/09/16 00:58:37;;;;;;;3.15;2.25;;;23.60;58.20;;;;;;4909032;28;92745;-88
2023/09/16 01:01:03;;;;;;;2.65;2.33;;;23.60;58.30;;;;;;4914903;28;93212;-88
2023/09/16 01:03:29;;;;;;;2.40;2.20;;;23.60;58.30;;;;;;4909906;28;92773;-88
2023/09/16 01:05:55;;;;;;;2.40;2.15;;;23.60;58.90;;;;;;4913623;28;94105;-88
2023/09/16 01:08:22;;;;;;;2.72;2.15;;;23.60;58.20;;;;;;4930938;28;92124;-88
2023/09/16 01:10:48;;;;;;;2.40;2.05;;;23.60;58.10;;;;;;4928576;28;92789;-88
2023/09/16 01:13:14;;;;;;;3.00;2.65;;;23.60;58.10;;;;;;4930563;28;93937;-88
2023/09/16 01:15:55;;;;;;;3.95;2.22;;;23.60;57.80;;;;;;4915815;28;96658;-88
2023/09/16 01:18:32;;;;;;;2.45;2.25;;;23.50;57.90;;;;;;4930454;28;92815;-88
2023/09/16 01:20:59;;;;;;;3.03;2.25;;;23.60;57.80;;;;;;4934565;28;92354;-87
2023/09/16 01:23:24;;;;;;;2.80;2.42;;;23.60;58.00;;;;;;4918601;28;96688;-87
2023/09/16 01:25:50;;;;;;;2.72;2.05;;;23.60;58.00;;;;;;4936922;28;93008;-88
2023/09/16 01:28:16;;;;;;;2.65;2.30;;;23.60;57.80;;;;;;4918125;28;93240;-88
2023/09/16 01:30:47;;;;;;;3.85;2.85;;;23.60;57.80;;;;;;4932761;28;92160;-87
2023/09/16 01:33:25;;;;;;;3.05;2.38;;;23.60;58.00;;;;;;4931804;28;93213;-88
2023/09/16 01:35:57;;;;;;;3.33;2.65;;;23.60;57.90;;;;;;4929960;28;93313;-88
2023/09/16 01:38:24;;;;;;;2.20;1.92;;;23.60;57.90;;;;;;4928364;28;94486;-88
2023/09/16 01:40:52;;;;;;;3.33;2.22;;;23.60;58.00;;;;;;4917526;28;92555;-87
2023/09/16 01:43:19;;;;;;;2.73;2.07;;;23.50;57.80;;;;;;4909576;28;96254;-88
2023/09/16 01:45:45;;;;;;;2.67;2.00;;;23.60;57.90;;;;;;4935521;28;92658;-88
2023/09/16 01:48:11;;;;;;;3.33;2.63;;;23.60;57.90;;;;;;4935133;28;92816;-88
2023/09/16 01:50:37;;;;;;;3.55;2.40;;;23.60;58.00;;;;;;4938870;28;92884;-88
2023/09/16 01:53:06;;;;;;;2.33;2.13;;;23.50;57.90;;;;;;4933805;28;93688;-87
2023/09/16 01:55:33;;;;;;;3.33;2.45;;;23.60;58.00;;;;;;4933241;28;93254;-88
2023/09/16 01:57:58;;;;;;;3.03;2.13;;;23.60;58.00;;;;;;4943610;28;93042;-88
2023/09/16 02:00:24;;;;;;;2.47;1.92;;;23.60;57.90;;;;;;4936133;28;92659;-89
2023/09/16 02:02:51;;;;;;;2.78;2.30;;;23.50;57.90;;;;;;4919356;28;96022;-88
2023/09/16 02:05:16;;;;;;;5.20;2.60;;;23.50;58.00;;;;;;4935092;28;94477;-87
2023/09/16 02:07:42;;;;;;;2.47;2.25;;;23.50;57.90;;;;;;4936024;28;92771;-87
2023/09/16 02:10:09;;;;;;;1.83;1.73;;;23.50;57.80;;;;;;4918441;28;93030;-87
2023/09/16 02:12:35;;;;;;;2.22;1.98;;;23.50;57.90;;;;;;4914033;28;94851;-88
2023/09/16 02:15:01;;;;;;;2.08;1.85;;;23.50;58.00;;;;;;4931204;28;92603;-88
2023/09/16 02:17:27;;;;;;;2.38;2.00;;;23.50;58.00;;;;;;4936627;28;93201;-88
2023/09/16 02:19:52;;;;;;;4.40;2.35;;;23.50;57.90;;;;;;4911922;28;92206;-89
2023/09/16 02:22:18;;;;;;;2.42;2.22;;;23.50;57.80;;;;;;4927028;28;92805;-88
2023/09/16 02:24:44;;;;;;;3.10;2.10;;;23.50;57.90;;;;;;4913032;28;94971;-88
2023/09/16 02:27:09;;;;;;;2.10;1.90;;;23.50;57.90;;;;;;4934361;28;93110;-88
2023/09/16 02:29:35;;;;;;;2.25;2.05;;;23.50;57.90;;;;;;4938368;28;92457;-88
2023/09/16 02:32:01;;;;;;;3.60;2.58;;;23.50;57.90;;;;;;4917790;28;95393;-88
2023/09/16 02:34:27;;;;;;;2.75;2.10;;;23.50;57.80;;;;;;4916892;28;94074;-88
2023/09/16 02:36:52;;;;;;;2.20;2.00;;;23.50;57.80;;;;;;4936844;28;92117;-88
2023/09/16 02:39:18;;;;;;;2.38;2.00;;;23.50;57.80;;;;;;4932301;28;93022;-87
2023/09/16 02:41:43;;;;;;;2.50;2.28;;;23.50;57.80;;;;;;4924100;28;93033;-88
2023/09/16 02:44:09;;;;;;;2.10;1.88;;;23.50;57.90;;;;;;4932174;28;92804;-88
2023/09/16 02:46:35;;;;;;;2.95;2.17;;;23.50;57.70;;;;;;4907506;28;92627;-87
2023/09/16 02:49:02;;;;;;;2.38;1.95;;;23.50;58.00;;;;;;4911187;28;92604;-88
2023/09/16 02:51:29;;;;;;;2.47;2.22;;;23.50;58.20;;;;;;4914362;28;93692;-88
2023/09/16 02:53:55;;;;;;;2.33;2.13;;;23.50;58.00;;;;;;4912518;28;97498;-88
2023/09/16 02:56:21;;;;;;;2.08;1.77;;;23.50;58.00;;;;;;4931645;28;92894;-88
2023/09/16 02:58:46;;;;;;;3.00;2.33;;;23.50;57.90;;;;;;4933423;28;92499;-88
2023/09/16 03:01:12;;;;;;;2.03;1.83;;;23.40;57.90;;;;;;4913148;28;95723;-87
2023/09/16 03:03:38;;;;;;;2.50;2.20;;;23.40;57.90;;;;;;4929658;28;93177;-88
2023/09/16 03:06:03;;;;;;;2.85;2.13;;;23.40;57.90;;;;;;4932186;28;93268;-87
2023/09/16 03:08:29;;;;;;;2.13;1.92;;;23.50;58.00;;;;;;4916306;28;91437;-88
2023/09/16 03:11:05;;;;;;;3.08;2.38;;;23.40;57.90;;;;;;4913666;28;94685;-89
2023/09/16 03:13:30;;;;;;;2.00;1.83;;;23.40;58.00;;;;;;4929575;28;93314;-87
2023/09/16 03:16:16;;;;;;;2.10;1.90;;;23.40;57.90;;;;;;4913041;28;93822;-88
2023/09/16 03:18:45;;;;;;;2.22;1.80;;;23.40;57.80;;;;;;4913299;28;92555;-88
2023/09/16 03:21:11;;;;;;;2.20;2.00;;;23.40;57.90;;;;;;4934128;28;92497;-88
2023/09/16 03:23:37;;;;;;;2.22;1.90;;;23.40;57.90;;;;;;4926298;28;92744;-87
2023/09/16 03:26:02;;;;;;;2.30;2.00;;;23.40;58.00;;;;;;4934456;28;92602;-88
2023/09/16 03:28:28;;;;;;;4.22;2.25;;;23.40;57.90;;;;;;4919171;28;92502;-88
2023/09/16 03:30:53;;;;;;;2.78;1.90;;;23.40;57.90;;;;;;4933056;28;93267;-88
2023/09/16 03:33:19;;;;;;;2.05;1.85;;;23.40;57.90;;;;;;4928602;28;92586;-89
2023/09/16 03:35:45;;;;;;;2.28;1.92;;;23.40;57.90;;;;;;4936119;28;93645;-88
2023/09/16 03:38:10;;;;;;;2.30;2.10;;;23.40;58.00;;;;;;4929463;28;92435;-88
2023/09/16 03:40:36;;;;;;;2.08;1.75;;;23.40;58.00;;;;;;4933518;28;94222;-88
2023/09/16 03:43:04;;;;;;;2.47;1.98;;;23.40;58.00;;;;;;4928068;28;93810;-88
2023/09/16 03:45:29;;;;;;;2.33;2.10;;;23.40;57.90;;;;;;4915701;28;92848;-88
2023/09/16 03:47:55;;;;;;;2.60;1.80;;;23.40;57.90;;;;;;4934990;28;92519;-88
2023/09/16 03:50:21;;;;;;;2.13;1.92;;;23.40;58.00;;;;;;4938242;28;92920;-88
2023/09/16 03:52:48;;;;;;;2.17;1.95;;;23.40;57.80;;;;;;4927299;28;92935;-88
2023/09/16 03:55:14;;;;;;;2.65;1.80;;;23.40;57.90;;;;;;4928451;28;93470;-88
2023/09/16 03:57:39;;;;;;;1.92;1.73;;;23.40;57.90;;;;;;4932632;28;91362;-88
2023/09/16 04:00:07;;;;;;;2.58;1.77;;;23.40;58.00;;;;;;4933079;28;99928;-89
2023/09/16 04:02:33;;;;;;;2.17;1.98;;;23.40;58.00;;;;;;4927400;28;93661;-88
2023/09/16 04:04:58;;;;;;;2.38;2.08;;;23.40;58.00;;;;;;4927444;28;93647;-87
2023/09/16 04:07:24;;;;;;;1.77;1.67;;;23.40;57.90;;;;;;4936577;28;93892;-88
2023/09/16 04:09:49;;;;;;;2.20;1.85;;;23.40;58.00;;;;;;4933126;28;92541;-88
2023/09/16 04:12:15;;;;;;;2.28;2.05;;;23.40;58.00;;;;;;4935814;28;93591;-88
2023/09/16 04:14:41;;;;;;;2.22;1.98;;;23.40;57.90;;;;;;4931549;28;91997;-88
2023/09/16 04:17:06;;;;;;;2.28;2.08;;;23.40;58.30;;;;;;4930603;28;92989;-88
2023/09/16 04:19:32;;;;;;;2.35;1.95;;;23.40;58.30;;;;;;4907336;28;95193;-88
2023/09/16 04:21:58;;;;;;;2.25;1.73;;;23.40;58.30;;;;;;4932946;28;93767;-89
2023/09/16 04:24:23;;;;;;;1.88;1.75;;;23.40;58.40;;;;;;4932699;28;93425;-89
2023/09/16 04:26:49;;;;;;;2.25;2.00;;;23.40;58.40;;;;;;4928879;28;93252;-88
2023/09/16 04:29:14;;;;;;;3.33;2.17;;;23.30;58.30;;;;;;4924757;28;93900;-88
2023/09/16 04:31:40;;;;;;;2.10;1.90;;;23.40;58.20;;;;;;4926294;28;93722;-88
2023/09/16 04:34:06;;;;;;;2.53;2.33;;;23.40;58.20;;;;;;4913904;28;93018;-87
2023/09/16 04:36:31;;;;;;;2.85;2.10;;;23.40;58.20;;;;;;4928683;28;92723;-88
2023/09/16 04:38:57;;;;;;;2.47;2.20;;;23.30;58.20;;;;;;4933166;28;92781;-88
2023/09/16 04:41:24;;;;;;;2.22;2.03;;;23.30;58.30;;;;;;4931307;28;93145;-88
2023/09/16 04:43:51;;;;;;;2.17;1.98;;;23.30;58.10;;;;;;4919716;28;93033;-88
2023/09/16 04:46:18;;;;;;;2.20;2.00;;;23.40;58.40;;;;;;4935601;28;92195;-88
2023/09/16 04:48:47;;;;;;;1.85;1.73;;;23.30;58.40;;;;;;4928547;28;93882;-88
2023/09/16 04:51:13;;;;;;;2.10;1.90;;;23.30;58.30;;;;;;4912567;28;95343;-88
2023/09/16 04:53:39;;;;;;;1.90;1.80;;;23.30;58.30;;;;;;4930148;28;94351;-88
2023/09/16 04:56:05;;;;;;;2.08;1.88;;;23.30;58.20;;;;;;4929826;28;92435;-88
2023/09/16 04:58:31;;;;;;;1.80;1.60;;;23.30;58.30;;;;;;4919093;28;95663;-88
2023/09/16 05:01:00;;;;;;;1.80;1.58;;;23.30;58.30;;;;;;4917040;28;95512;-88
2023/09/16 05:03:26;;;;;;;1.92;1.80;;;23.30;58.30;;;;;;4915231;28;92874;-88
2023/09/16 05:05:52;;;;;;;2.28;1.90;;;23.30;58.90;;;;;;4911511;28;93343;-88
2023/09/16 05:08:19;;;;;;;2.00;1.75;;;23.30;58.30;;;;;;4908385;28;93146;-88
2023/09/16 05:10:45;;;;;;;1.80;1.70;;;23.30;58.50;;;;;;4928684;28;94859;-88
2023/09/16 05:13:10;;;;;;;2.08;1.70;;;23.30;58.30;;;;;;4934177;28;93105;-88
2023/09/16 05:15:36;;;;;;;1.98;1.75;;;23.30;58.50;;;;;;4931680;28;92839;-88
2023/09/16 05:18:02;;;;;;;2.30;1.80;;;23.30;58.50;;;;;;4930926;28;93923;-88
2023/09/16 05:20:28;;;;;;;1.73;1.55;;;23.30;58.40;;;;;;4914296;28;94566;-87
2023/09/16 05:22:53;;;;;;;3.88;1.80;;;23.30;58.30;;;;;;4911541;28;92369;-93
2023/09/16 05:25:19;;;;;;;2.08;1.70;;;23.30;57.80;;;;;;4935616;28;92230;-92
2023/09/16 05:27:45;;;;;;;2.60;1.70;;;23.40;56.90;;;;;;4919418;28;95740;-92
2023/09/16 05:30:11;;;;;;;4.03;1.90;;;23.40;56.90;;;;;;4937189;28;92913;-92
2023/09/16 05:32:36;;;;;;;3.38;2.08;;;23.30;55.70;;;;;;4933099;28;92501;-90
2023/09/16 05:35:02;;;;;;;2.97;1.70;;;23.30;55.40;;;;;;4920861;28;91276;-90
2023/09/16 05:37:28;;;;;;;5.53;2.08;;;23.30;55.30;;;;;;4915691;28;96081;-91
2023/09/16 05:39:53;;;;;;;2.65;1.95;;;23.20;55.20;;;;;;4935285;28;93044;-88
2023/09/16 05:42:19;;;;;;;3.00;1.70;;;23.20;54.70;;;;;;4913936;28;93342;-90
2023/09/16 05:44:44;;;;;;;4.28;1.83;;;23.20;54.50;;;;;;4936611;28;91993;-90
2023/09/16 05:47:10;;;;;;;1.92;1.70;;;23.20;54.50;;;;;;4916392;28;93382;-91
2023/09/16 05:49:36;;;;;;;2.58;1.98;;;23.20;54.50;;;;;;4917252;28;94267;-91
2023/09/16 05:52:02;;;;;;;5.15;1.77;;;23.20;54.30;;;;;;4916092;28;92578;-91
2023/09/16 05:54:27;;;;;;;3.53;1.65;;;23.20;54.30;;;;;;4935425;28;92776;-90
2023/09/16 05:56:53;;;;;;;4.68;2.03;;;23.20;54.20;;;;;;4939392;28;94280;-91
2023/09/16 05:59:21;;;;;;;3.80;1.90;;;23.20;54.10;;;;;;4920059;28;94671;-91
2023/09/16 06:01:47;;;;;;;5.30;1.90;;;23.20;54.20;;;;;;4916237;28;93050;-91
2023/09/16 06:04:12;;;;;;;8.75;2.75;;;23.20;54.10;;;;;;4935588;28;93312;-91
2023/09/16 06:06:38;;;;;;;3.20;1.70;;;23.20;54.00;;;;;;4924123;28;96967;-92
2023/09/16 06:09:04;;;;;;;9.00;2.28;;;23.20;54.00;;;;;;4939594;28;93701;-90
2023/09/16 06:11:30;;;;;;;3.88;1.73;;;23.20;54.00;;;;;;4918497;28;92568;-91
2023/09/16 06:13:56;;;;;;;6.53;2.30;;;23.20;54.70;;;;;;4938515;28;92018;-90
2023/09/16 06:16:22;;;;;;;47.05;13.07;;;23.20;54.20;;;;;;4937227;28;92497;-91
2023/09/16 06:18:48;;;;;;;53.00;11.02;;;23.20;54.20;;;;;;4938899;28;93235;-91
2023/09/16 06:21:15;;;;;;;44.53;10.35;;;23.20;54.20;;;;;;4917832;28;92964;-89
2023/09/16 06:23:42;;;;;;;35.33;8.63;;;23.20;54.40;;;;;;4937640;28;91760;-90
2023/09/16 06:26:08;;;;;;;36.35;6.63;;;23.30;54.60;;;;;;4930701;28;92714;-91
2023/09/16 06:28:35;;;;;;;21.60;5.10;;;23.20;54.50;;;;;;4937408;28;92581;-94
2023/09/16 06:31:01;;;;;;;23.48;5.38;;;23.30;54.90;;;;;;4938474;28;93933;-94
2023/09/16 06:33:27;;;;;;;11.55;4.05;;;23.20;55.10;;;;;;4938893;28;92505;-93
2023/09/16 06:35:52;;;;;;;12.75;4.05;;;23.30;55.40;;;;;;4922581;28;95754;-92
2023/09/16 06:38:18;;;;;;;8.10;3.47;;;23.30;55.50;;;;;;4928518;28;93878;-95
2023/09/16 06:40:43;;;;;;;7.43;3.10;;;23.40;55.30;;;;;;4946288;28;93291;-93
2023/09/16 06:43:09;;;;;;;5.75;3.00;;;23.30;55.60;;;;;;4945380;28;92608;-93
2023/09/16 06:45:35;;;;;;;6.82;3.33;;;23.20;55.70;;;;;;4925662;28;93986;-92
2023/09/16 06:48:01;;;;;;;6.30;2.75;;;23.20;56.00;;;;;;4924793;28;94484;-94
2023/09/16 06:50:26;;;;;;;8.27;3.10;;;23.20;56.30;;;;;;4927332;28;92176;-93
2023/09/16 06:52:52;;;;;;;7.25;3.10;;;23.20;56.60;;;;;;4944059;28;92501;-93
2023/09/16 06:55:17;;;;;;;6.72;3.85;;;23.20;56.90;;;;;;4928362;28;95723;-91
2023/09/16 06:57:44;;;;;;;7.47;2.92;;;23.20;56.90;;;;;;4925561;28;95264;-92
2023/09/16 07:00:10;;;;;;;5.03;3.10;;;23.40;56.90;;;;;;4941713;28;93563;-90
2023/09/16 07:02:36;;;;;;;6.57;3.08;;;23.40;57.00;;;;;;4928883;28;92670;-91
2023/09/16 07:05:02;;;;;;;10.48;4.70;;;23.40;56.90;;;;;;4918424;28;94207;-90
2023/09/16 07:07:28;;;;;;;10.13;4.22;;;23.40;57.20;;;;;;4932376;28;93140;-94
2023/09/16 07:09:55;;;;;;;15.77;4.53;;;23.40;57.60;;;;;;4938456;28;92352;-94
2023/09/16 07:12:21;;;;;;;9.18;4.30;;;23.40;57.70;;;;;;4940187;28;92089;-94
2023/09/16 07:14:47;;;;;;;8.10;3.92;;;23.40;57.90;;;;;;4935575;28;94744;-94
2023/09/16 07:17:13;;;;;;;6.43;3.50;;;23.30;57.80;;;;;;4913903;28;93859;-89
2023/09/16 07:19:40;;;;;;;8.95;3.13;;;23.40;57.90;;;;;;4916231;28;93339;-89
2023/09/16 07:22:05;;;;;;;6.40;3.33;;;23.40;57.90;;;;;;4909180;28;92806;-88
2023/09/16 07:24:31;;;;;;;6.80;3.40;;;23.40;58.20;;;;;;4909023;28;92548;-89
2023/09/16 07:26:57;;;;;;;6.10;3.63;;;23.40;58.40;;;;;;4905958;28;97048;-89
2023/09/16 07:29:22;;;;;;;7.05;3.10;;;23.40;58.90;;;;;;4920807;28;92512;-89
2023/09/16 07:31:48;;;;;;;6.35;3.05;;;23.40;59.00;;;;;;4898439;28;92532;-88
2023/09/16 07:34:15;;;;;;;6.05;3.53;;;23.40;59.20;;;;;;4908636;28;93096;-89
2023/09/16 07:36:41;;;;;;;4.38;2.90;;;23.40;59.20;;;;;;4909067;28;92492;-88
2023/09/16 07:39:07;;;;;;;11.75;3.92;;;23.40;59.40;;;;;;4908037;28;92449;-89
2023/09/16 07:41:33;;;;;;;6.60;3.03;;;23.40;59.30;;;;;;4931759;28;93395;-89
2023/09/16 07:43:59;;;;;;;11.45;3.45;;;23.40;59.40;;;;;;4930976;28;94162;-89
2023/09/16 07:46:25;;;;;;;9.80;3.17;;;23.40;59.40;;;;;;4928893;28;93909;-90
2023/09/16 07:48:50;;;;;;;5.00;2.95;;;23.40;59.50;;;;;;4935827;28;92325;-94
2023/09/16 07:51:16;;;;;;;4.70;3.03;;;23.50;59.20;;;;;;4914978;28;92223;-92
2023/09/16 07:53:42;;;;;;;7.38;3.78;;;23.50;58.70;;;;;;4934452;28;92768;-91
2023/09/16 07:56:07;;;;;;;6.80;3.10;;;23.50;58.50;;;;;;4914526;28;95872;-95
2023/09/16 07:58:33;;;;;;;10.75;3.92;;;23.60;58.50;;;;;;4935303;28;92838;-93
2023/09/16 08:00:59;;;;;;;7.72;3.65;;;23.60;58.40;;;;;;4936052;28;91790;-94
2023/09/16 08:03:24;;;;;;;4.85;3.70;;;23.60;57.90;;;;;;4914419;28;94528;-94
2023/09/16 08:05:50;;;;;;;8.65;4.32;;;23.50;58.20;;;;;;4934006;28;98142;-93
2023/09/16 08:08:16;;;;;;;14.65;3.28;;;23.60;58.30;;;;;;4916951;28;93077;-94
2023/09/16 08:10:51;;;;;;;8.95;3.30;;;23.60;58.30;;;;;;4935415;28;92667;-93
2023/09/16 08:13:20;;;;;;;13.38;3.85;;;23.60;58.60;;;;;;4919929;28;92592;-92
2023/09/16 08:15:46;;;;;;;6.70;3.27;;;23.70;58.80;;;;;;4922866;28;95489;-88
2023/09/16 08:18:11;;;;;;;6.68;3.80;;;23.70;58.70;;;;;;4908317;28;93440;-88
2023/09/16 08:20:37;;;;;;;8.25;2.90;;;23.70;58.90;;;;;;4919867;28;92536;-89
2023/09/16 08:23:03;;;;;;;5.28;3.28;;;23.60;59.50;;;;;;4927148;28;93759;-88
2023/09/16 08:25:28;;;;;;;8.60;3.25;;;23.60;59.80;;;;;;4907322;28;95911;-88
2023/09/16 08:27:54;;;;;;;5.00;3.03;;;23.60;60.00;;;;;;4928736;28;93592;-89
2023/09/16 08:30:21;;;;;;;8.07;3.38;;;23.50;60.10;;;;;;4924930;28;92323;-87
2023/09/16 08:32:47;;;;;;;9.38;2.85;;;23.60;61.00;;;;;;4920954;28;93607;-90
2023/09/16 08:35:13;;;;;;;8.23;3.35;;;23.70;61.00;;;;;;4922923;28;95759;-88
2023/09/16 08:37:38;;;;;;;11.27;3.53;;;23.70;61.30;;;;;;4910302;28;93409;-88
2023/09/16 08:40:04;;;;;;;5.40;3.10;;;23.70;61.70;;;;;;4910303;28;92828;-88
2023/09/16 08:42:39;;;;;;;6.20;3.22;;;23.70;61.90;;;;;;4909393;28;96595;-88
2023/09/16 08:45:08;;;;;;;5.30;2.90;;;23.70;62.20;;;;;;4923319;28;95733;-88
2023/09/16 08:47:39;;;;;;;5.30;3.20;;;23.90;62.30;;;;;;4933065;28;92283;-89
2023/09/16 08:50:07;;;;;;;4.53;2.60;;;24.00;62.10;;;;;;4911113;28;91827;-90
2023/09/16 08:52:48;;;;;;;5.60;3.20;;;24.00;61.80;;;;;;4913407;28;93173;-91
2023/09/16 08:55:15;;;;;;;5.45;2.80;;;24.00;61.70;;;;;;4926163;28;93930;-88
2023/09/16 08:57:50;;;;;;;5.63;3.20;;;24.00;62.10;;;;;;4925296;28;93856;-89
2023/09/16 09:00:16;;;;;;;8.23;3.22;;;23.90;62.10;;;;;;4926610;28;93060;-90
2023/09/16 09:02:43;;;;;;;4.90;2.95;;;23.90;62.60;;;;;;4926655;28;93086;-88
2023/09/16 09:05:11;;;;;;;6.38;3.08;;;23.80;62.80;;;;;;4927810;28;92801;-88
2023/09/16 09:07:39;;;;;;;9.10;3.25;;;23.80;63.00;;;;;;4931521;28;92951;-90
2023/09/16 09:10:05;;;;;;;4.37;3.33;;;23.80;63.10;;;;;;4926882;28;93826;-88
2023/09/16 09:12:35;;;;;;;6.03;3.28;;;23.80;63.00;;;;;;4925802;28;93107;-86
2023/09/16 09:15:05;;;;;;;7.10;3.20;;;23.80;62.80;;;;;;4924212;28;92569;-88
2023/09/16 09:17:37;;;;;;;12.23;3.55;;;23.80;62.80;;;;;;4909612;28;93098;-88
2023/09/16 09:20:07;;;;;;;8.85;4.05;;;23.80;62.90;;;;;;4924917;28;93818;-87
2023/09/16 09:22:34;;;;;;;7.90;3.90;;;23.80;63.10;;;;;;4921160;28;96850;-87
2023/09/16 09:25:00;;;;;;;9.43;4.68;;;23.80;63.10;;;;;;4925675;28;93116;-89
2023/09/16 09:27:26;;;;;;;11.45;3.88;;;23.90;63.20;;;;;;4916859;28;93779;-93
2023/09/16 09:29:52;;;;;;;8.88;3.53;;;23.90;61.50;;;;;;4932882;28;92954;-88
2023/09/16 09:32:18;;;;;;;5.85;3.20;;;23.90;62.20;;;;;;4917700;28;92362;-89
2023/09/16 09:34:44;;;;;;;5.07;3.13;;;23.90;61.80;;;;;;4935544;28;92796;-90
2023/09/16 09:37:16;;;;;;;12.30;4.50;;;23.90;61.60;;;;;;4917125;28;92516;-93
2023/09/16 09:39:43;;;;;;;18.50;4.53;;;23.80;62.00;;;;;;4935301;28;92136;-90
2023/09/16 09:42:08;;;;;;;12.75;4.40;;;23.80;61.80;;;;;;4936228;28;96021;-91
2023/09/16 09:44:34;;;;;;;17.15;5.38;;;23.90;61.80;;;;;;4917473;28;92513;-89
2023/09/16 09:47:00;;;;;;;16.35;5.40;;;23.90;62.30;;;;;;4915283;28;93037;-91
2023/09/16 09:49:28;;;;;;;13.52;6.45;;;23.90;62.50;;;;;;4934992;28;93052;-93
2023/09/16 09:51:54;;;;;;;15.15;6.43;;;24.00;62.70;;;;;;4940625;28;93846;-91
2023/09/16 09:54:20;;;;;;;16.65;6.00;;;24.00;62.80;;;;;;4934782;28;93180;-92
2023/09/16 09:56:46;;;;;;;18.70;6.00;;;24.00;62.60;;;;;;4923580;28;92826;-93
2023/09/16 09:59:12;;;;;;;12.60;5.68;;;24.00;62.40;;;;;;4929415;28;92813;-87
2023/09/16 10:01:40;;;;;;;25.73;6.10;;;23.90;62.70;;;;;;4928741;28;95645;-92
2023/09/16 10:04:06;;;;;;;14.50;5.25;;;23.90;62.70;;;;;;4913522;28;95536;-88
2023/09/16 10:06:31;;;;;;;15.15;5.97;;;23.90;63.10;;;;;;4898636;28;92678;-95
2023/09/16 10:08:58;;;;;;;14.02;6.13;;;23.90;63.40;;;;;;4952022;28;91837;-96
2023/09/16 10:11:28;;;;;;;11.05;5.35;;;23.90;63.60;;;;;;4966942;28;93907;-90
2023/09/16 10:13:54;;;;;;;10.77;5.68;;;23.90;63.70;;;;;;4897853;28;96856;-87
2023/09/16 10:16:20;;;;;;;12.65;5.60;;;23.90;63.90;;;;;;4910118;28;92485;-90
2023/09/16 10:18:46;;;;;;;11.75;5.80;;;23.90;64.00;;;;;;4928605;28;92940;-88
2023/09/16 10:21:14;;;;;;;11.13;5.30;;;24.00;64.60;;;;;;4934012;28;93311;-91
2023/09/16 10:23:40;;;;;;;11.95;4.63;;;24.00;63.90;;;;;;4931445;28;93463;-86
2023/09/16 10:26:07;;;;;;;9.23;4.90;;;24.00;64.00;;;;;;4906838;28;92750;-86
2023/09/16 10:28:38;;;;;;;8.80;5.57;;;24.00;63.90;;;;;;4929261;28;91777;-86
2023/09/16 10:31:04;;;;;;;11.68;5.22;;;24.10;64.00;;;;;;4926452;28;95495;-85
2023/09/16 10:33:30;;;;;;;6.95;4.03;;;24.10;63.90;;;;;;4928297;28;93112;-85
2023/09/16 10:35:56;;;;;;;8.18;4.85;;;24.10;63.90;;;;;;4927720;28;93532;-86
2023/09/16 10:38:22;;;;;;;9.30;5.30;;;24.00;64.00;;;;;;4932164;28;93135;-84
2023/09/16 10:40:50;;;;;;;7.45;4.60;;;24.10;64.00;;;;;;4929096;28;93116;-87
2023/09/16 10:43:16;;;;;;;7.32;4.95;;;24.10;64.00;;;;;;4926870;28;92870;-86
2023/09/16 10:45:42;;;;;;;8.85;5.20;;;24.10;64.10;;;;;;4911032;28;92853;-86
2023/09/16 10:48:07;;;;;;;10.73;5.00;;;24.20;63.90;;;;;;4910561;28;92838;-85
2023/09/16 10:50:36;;;;;;;8.45;5.18;;;24.20;63.70;;;;;;4928140;28;94195;-86
2023/09/16 10:53:05;;;;;;;10.97;5.33;;;24.20;63.90;;;;;;4913762;28;93847;-85
2023/09/16 10:56:05;;;;;;;9.68;5.05;;;24.20;63.90;;;;;;4910590;28;93430;-88
2023/09/16 10:58:42;;;;;;;7.00;5.60;;;24.20;63.90;;;;;;4928771;28;92443;-88
2023/09/16 11:01:10;;;;;;;8.38;5.03;;;24.10;63.80;;;;;;4921871;28;96649;-87
2023/09/16 11:03:41;;;;;;;9.95;4.97;;;24.10;63.90;;;;;;4926723;28;93734;-87
2023/09/16 11:06:06;;;;;;;8.07;4.93;;;24.20;64.30;;;;;;4924794;28;93229;-88
2023/09/16 11:08:32;;;;;;;10.63;5.53;;;24.20;64.10;;;;;;4927924;28;92325;-85
2023/09/16 11:10:58;;;;;;;7.13;5.38;;;24.20;64.00;;;;;;4929351;28;93067;-85
2023/09/16 11:13:29;;;;;;;8.15;5.13;;;24.10;64.50;;;;;;4923484;28;92659;-86
2023/09/16 11:15:59;;;;;;;8.43;4.60;;;24.20;64.10;;;;;;4931759;28;92797;-87
2023/09/16 11:18:25;;;;;;;10.35;5.25;;;24.20;64.30;;;;;;4928266;28;92173;-85
2023/09/16 11:20:51;;;;;;;11.15;5.50;;;24.20;64.80;;;;;;4931567;28;93148;-89
2023/09/16 11:23:17;;;;;;;11.32;4.70;;;24.30;65.20;;;;;;4916725;28;95321;-93
2023/09/16 11:25:43;;;;;;;13.55;4.75;;;24.30;63.10;;;;;;4933074;28;93846;-89
2023/09/16 11:28:13;;;;;;;9.63;5.00;;;24.30;63.60;;;;;;4931966;28;92777;-92
2023/09/16 11:30:39;;;;;;;10.27;5.45;;;24.30;64.00;;;;;;4937706;28;93811;-94
2023/09/16 11:33:05;;;;;;;10.85;5.65;;;24.40;64.60;;;;;;4920373;28;95413;-92
2023/09/16 11:35:33;;;;;;;8.27;6.13;;;24.30;63.90;;;;;;4933161;28;92599;-93
2023/09/16 11:37:59;;;;;;;11.53;5.27;;;24.30;64.20;;;;;;4931071;28;92539;-92
2023/09/16 11:40:29;;;;;;;8.75;5.65;;;24.30;63.70;;;;;;4930216;28;93224;-93
2023/09/16 11:42:55;;;;;;;11.70;5.75;;;24.30;64.10;;;;;;4926769;28;95139;-92
2023/09/16 11:45:22;;;;;;;11.48;5.95;;;24.30;64.80;;;;;;4937905;28;92015;-94
2023/09/16 11:47:49;;;;;;;12.45;5.95;;;24.30;64.40;;;;;;4934164;28;92613;-93
2023/09/16 11:50:26;;;;;;;11.20;6.57;;;24.30;64.20;;;;;;4928760;28;93846;-94
2023/09/16 11:52:52;;;;;;;11.63;5.53;;;24.20;64.00;;;;;;4929093;28;93195;-92
2023/09/16 11:55:19;;;;;;;11.68;6.20;;;24.20;64.20;;;;;;4913553;28;93344;-92
2023/09/16 11:57:46;;;;;;;10.73;5.78;;;24.30;64.20;;;;;;4931636;28;92740;-89
2023/09/16 12:00:12;;;;;;;17.92;6.20;;;24.30;64.40;;;;;;4911997;28;95608;-89
2023/09/16 12:02:38;;;;;;;13.52;5.90;;;24.30;64.30;;;;;;4927825;28;94316;-87
2023/09/16 12:05:05;;;;;;;11.43;6.07;;;24.30;64.10;;;;;;4927500;28;92779;-89
2023/09/16 12:07:31;;;;;;;12.27;6.22;;;24.30;64.10;;;;;;4925430;28;92285;-89
2023/09/16 12:10:00;;;;;;;14.48;6.00;;;24.20;63.90;;;;;;4929819;28;93427;-89
2023/09/16 12:12:27;;;;;;;;;;;24.20;64.00;;;;;;4928746;28;97259;-89
2023/09/16 12:14:53;;;;;;;12.32;5.35;;;24.30;64.50;;;;;;4933175;28;93458;-90
2023/09/16 12:17:18;;;;;;;12.48;6.13;;;24.30;64.50;;;;;;4908350;28;92389;-88
2023/09/16 12:19:51;;;;;;;9.68;6.03;;;24.30;63.90;;;;;;4926704;28;93715;-87
2023/09/16 12:22:17;;;;;;;7.55;5.40;;;24.30;64.10;;;;;;4928066;28;93235;-87
2023/09/16 12:24:44;;;;;;;9.38;5.88;;;24.40;64.80;;;;;;4927744;28;93585;-86
2023/09/16 12:27:10;;;;;;;13.80;5.90;;;24.40;64.80;;;;;;4929187;28;92190;-86
2023/09/16 12:29:36;;;;;;;10.85;5.85;;;24.40;64.60;;;;;;4927184;28;93033;-85
2023/09/16 12:32:15;;;;;;;8.88;5.72;;;24.40;64.70;;;;;;4928390;28;93197;-86
2023/09/16 12:34:41;;;;;;;8.20;5.53;;;24.30;64.70;;;;;;4908531;28;92961;-87
2023/09/16 12:37:07;;;;;;;10.85;5.78;;;24.30;64.80;;;;;;4925586;28;92687;-86
2023/09/16 12:39:34;;;;;;;10.73;6.32;;;24.40;65.20;;;;;;4924986;28;94831;-85
2023/09/16 12:42:01;;;;;;;10.40;6.22;;;24.30;65.00;;;;;;4923345;28;95620;-86